Time;durP1;ratioP1;P1;durP2;ratioP2;P2;SDS_P1;SDS_P2;PMS_P1;PMS_P2;Temp;Humidity;BMP_temperature;BMP_pressure;BME280_temperature;BME280_humidity;BME280_pressure;Samples;Min_cycle;Max_cycle;Signal;HPM_P1;HPM_P2
2023/09/20 00:02:09;;;;;;;7.30;1.67;;;;;;;-145.69;72.50;52194.88;5114584;27;20852;-79
2023/09/20 00:04:35;;;;;;;2.20;1.43;;;;;;;-145.69;72.49;52171.09;5114395;27;20278;-79
2023/09/20 00:07:07;;;;;;;3.55;1.40;;;;;;;-145.69;72.34;52179.03;5113969;28;20255;-80
2023/09/20 00:09:35;;;;;;;6.63;1.75;;;;;;;-145.69;72.28;52194.88;5113948;28;20212;-79
2023/09/20 00:12:02;;;;;;;5.10;1.73;;;;;;;-145.69;72.44;52175.06;5115075;27;20204;-79
2023/09/20 00:14:29;;;;;;;2.33;1.37;;;;;;;-145.69;73.08;52177.03;5113964;28;20197;-79
2023/09/20 00:16:55;;;;;;;7.20;1.57;;;;;;;-145.69;73.70;52182.97;5113961;28;20256;-79
2023/09/20 00:19:22;;;;;;;5.53;1.80;;;;;;;-145.69;73.88;52163.19;5113116;28;20229;-79
2023/09/20 00:21:49;;;;;;;5.47;1.53;;;;;;;-145.69;73.52;52182.97;5113808;28;20280;-79
2023/09/20 00:24:21;;;;;;;2.43;1.60;;;;;;;-145.69;73.12;52179.03;5113574;28;20216;-79
2023/09/20 00:26:49;;;;;;;3.23;1.63;;;;;;;-145.69;73.89;52194.88;5113561;28;20208;-79
2023/09/20 00:29:15;;;;;;;2.83;1.33;;;;;;;-145.69;73.47;52210.72;5113651;28;20233;-79
2023/09/20 00:31:42;;;;;;;4.10;1.53;;;;;;;-145.69;74.27;52194.88;5110083;28;20586;-80
2023/09/20 00:34:13;;;;;;;8.15;1.60;;;;;;;-145.69;73.73;52167.13;5113684;28;20233;-79
2023/09/20 00:36:41;;;;;;;3.55;1.50;;;;;;;-145.69;72.97;52155.25;5113600;28;20759;-79
2023/09/20 00:39:09;;;;;;;5.37;1.73;;;;;;;-145.69;73.57;52173.09;5113472;28;20576;-80
2023/09/20 00:41:40;;;;;;;2.30;1.40;;;;;;;-145.69;74.07;52186.94;5128046;27;20285;-79
2023/09/20 00:44:08;;;;;;;3.20;1.97;;;;;;;-145.69;73.97;52159.22;5134158;27;20215;-79
2023/09/20 00:46:42;;;;;;;3.92;1.67;;;;;;;-145.69;73.51;52165.16;5133983;27;20203;-79
2023/09/20 00:49:08;;;;;;;3.97;1.77;;;;;;;-145.69;74.79;52200.81;5132863;27;20526;-79
2023/09/20 00:51:38;;;;;;;2.92;1.73;;;;;;;-145.69;75.07;52177.03;5133792;27;20533;-79
2023/09/20 00:54:06;;;;;;;4.30;1.70;;;;;;;-145.69;74.49;52175.06;5133897;27;20257;-79
2023/09/20 00:56:34;;;;;;;4.80;2.00;;;;;;;-145.69;74.23;52210.72;5133780;27;20197;-79
2023/09/20 00:59:06;;;;;;;3.60;1.57;;;;;;;-145.69;73.47;52190.91;5133802;27;20197;-79
2023/09/20 01:01:37;;;;;;;5.90;1.90;;;;;;;-145.69;73.09;52171.09;5130808;27;20643;-79
2023/09/20 01:04:10;;;;;;;3.83;1.80;;;;;;;-145.69;73.88;52167.13;5113225;28;20202;-79
2023/09/20 01:06:38;;;;;;;2.67;1.77;;;;;;;-145.69;74.36;52155.25;5114460;28;20209;-79
2023/09/20 01:09:04;;;;;;;6.53;1.80;;;;;;;-145.69;73.72;52184.97;5125019;27;20229;-79
2023/09/20 01:11:32;;;;;;;6.83;1.40;;;;;;;-145.69;73.97;52137.44;5119422;27;20197;-79
2023/09/20 01:13:59;;;;;;;3.87;1.80;;;;;;;-145.69;73.81;52194.88;5114312;28;20201;-80
2023/09/20 01:16:25;;;;;;;2.80;1.50;;;;;;;-145.69;73.98;52192.88;5123292;28;20224;-80
2023/09/20 01:19:04;;;;;;;3.90;1.60;;;;;;;-145.69;72.93;52206.75;5112835;28;20228;-79
2023/09/20 01:21:31;;;;;;;3.15;1.65;;;;;;;-145.69;73.55;52186.94;5122717;28;20204;-79
2023/09/20 01:24:00;;;;;;;4.10;1.70;;;;;;;-145.69;73.50;52190.91;5133662;27;20201;-79
2023/09/20 01:26:33;;;;;;;4.85;1.65;;;;;;;-145.69;73.38;52206.75;5133247;27;20667;-79
2023/09/20 01:29:03;;;;;;;3.08;1.33;;;;;;;-145.69;73.90;52190.91;5114079;27;20229;-79
2023/09/20 01:31:30;;;;;;;7.07;1.80;;;;;;;-145.69;74.27;52202.78;5115242;28;20206;-79
2023/09/20 01:33:59;;;;;;;2.85;1.80;;;;;;;-145.69;73.82;52218.63;5116949;28;20197;-79
2023/09/20 01:36:32;;;;;;;4.17;1.73;;;;;;;-145.69;74.73;52179.03;5116582;28;20224;-79
2023/09/20 01:39:00;;;;;;;4.43;2.00;;;;;;;-145.69;74.29;52184.97;5100461;28;20202;-79
2023/09/20 01:41:27;;;;;;;2.03;1.60;;;;;;;-145.69;74.41;52200.81;5117064;27;20197;-80
2023/09/20 01:43:55;;;;;;;4.80;1.53;;;;;;;-145.69;73.40;52190.91;5117343;28;20391;-79
2023/09/20 01:46:28;;;;;;;2.17;1.48;;;;;;;-145.69;72.86;52169.13;5132167;27;20229;-79
2023/09/20 01:48:55;;;;;;;4.83;1.60;;;;;;;-145.69;73.89;52222.59;5137129;27;20223;-79
2023/09/20 01:51:23;;;;;;;3.43;1.63;;;;;;;-145.69;74.02;52214.66;5137135;27;20204;-79
2023/09/20 01:53:49;;;;;;;4.43;1.63;;;;;;;-145.69;74.85;52196.84;5137323;27;20257;-79
2023/09/20 01:56:18;;;;;;;2.20;1.63;;;;;;;-145.69;75.62;52192.88;5135477;27;20193;-79
2023/09/20 01:58:45;;;;;;;4.30;2.20;;;;;;;-145.69;75.29;52200.81;5137311;27;20201;-78
2023/09/20 02:01:13;;;;;;;2.20;1.80;;;;;;;-145.69;75.45;52214.66;5137032;27;20200;-79
2023/09/20 02:03:40;;;;;;;3.80;1.80;;;;;;;-145.69;75.22;52222.59;5136948;27;20205;-80
2023/09/20 02:06:07;;;;;;;5.80;1.90;;;;;;;-145.69;75.64;52182.97;5136852;27;20201;-80
2023/09/20 02:08:37;;;;;;;3.70;2.00;;;;;;;-145.69;75.90;52179.03;5134656;27;20216;-79
2023/09/20 02:11:04;;;;;;;6.17;1.90;;;;;;;-145.69;74.93;52206.75;5131713;27;20273;-79
2023/09/20 02:13:33;;;;;;;3.03;1.73;;;;;;;-145.69;75.22;52192.88;5116188;28;20208;-78
2023/09/20 02:16:00;;;;;;;2.47;1.70;;;;;;;-145.69;76.03;52200.81;5116424;28;20292;-79
2023/09/20 02:18:29;;;;;;;3.05;1.65;;;;;;;-145.69;75.38;52194.88;5116296;28;20633;-79
2023/09/20 02:20:58;;;;;;;2.83;1.90;;;;;;;-145.69;74.80;52210.72;5116162;28;20204;-79
2023/09/20 02:23:27;;;;;;;4.73;1.77;;;;;;;-145.69;75.16;52224.56;5108510;28;20652;-80
2023/09/20 02:25:55;;;;;;;3.38;1.67;;;;;;;-145.69;75.30;52236.44;5095609;28;20563;-80
2023/09/20 02:28:21;;;;;;;5.33;1.60;;;;;;;-145.69;74.77;52198.81;5095682;28;20279;-79
2023/09/20 02:30:50;;;;;;;3.97;1.77;;;;;;;-145.69;75.48;52214.66;5095432;28;20644;-79
2023/09/20 02:33:19;;;;;;;6.80;1.67;;;;;;;-145.69;75.11;52192.88;5128886;27;20677;-79
2023/09/20 02:35:46;;;;;;;5.77;2.27;;;;;;;-145.69;75.52;52198.81;5107296;28;20197;-79
2023/09/20 02:38:15;;;;;;;6.53;2.20;;;;;;;-145.69;75.57;52210.72;5115936;28;20201;-79
2023/09/20 02:40:43;;;;;;;2.77;1.70;;;;;;;-145.69;75.28;52192.88;5115459;28;20221;-79
2023/09/20 02:43:12;;;;;;;5.43;1.90;;;;;;;-145.69;75.75;52218.63;5114480;28;20202;-79
2023/09/20 02:45:45;;;;;;;3.77;2.00;;;;;;;-145.69;74.93;52202.78;5115560;28;20296;-79
2023/09/20 02:48:13;;;;;;;2.83;1.80;;;;;;;-145.69;75.18;52218.63;5115486;27;20308;-79
2023/09/20 02:50:44;;;;;;;7.27;2.07;;;;;;;-145.69;74.76;52200.81;5115436;28;20206;-79
2023/09/20 02:53:10;;;;;;;3.07;1.73;;;;;;;-145.69;75.46;52190.91;5115577;28;20201;-80
2023/09/20 02:55:41;;;;;;;5.27;2.23;;;;;;;-145.69;76.10;52194.88;5115607;28;20201;-80
2023/09/20 02:58:09;;;;;;;3.87;1.73;;;;;;;-145.69;75.92;52198.81;5116514;27;20209;-79
2023/09/20 03:00:38;;;;;;;5.63;1.70;;;;;;;-145.69;75.47;52190.91;5124855;27;20193;-79
2023/09/20 03:03:07;;;;;;;2.77;1.93;;;;;;;-145.69;74.87;52182.97;5115244;28;20232;-80
2023/09/20 03:05:36;;;;;;;5.60;1.70;;;;;;;-145.69;75.52;52186.94;5115205;28;20567;-80
2023/09/20 03:08:04;;;;;;;3.47;1.50;;;;;;;-145.69;75.58;52210.72;5115152;28;20229;-79
2023/09/20 03:10:31;;;;;;;5.30;2.03;;;;;;;-145.69;75.01;52188.91;5115201;28;20197;-79
2023/09/20 03:12:59;;;;;;;2.53;1.77;;;;;;;-145.69;75.29;52181.00;5124044;27;20225;-79
2023/09/20 03:15:28;;;;;;;2.97;1.70;;;;;;;-145.69;74.80;52192.88;5135597;27;20279;-79
2023/09/20 03:17:56;;;;;;;2.50;1.70;;;;;;;-145.69;75.37;52218.63;5135552;27;20260;-79
2023/09/20 03:20:26;;;;;;;6.70;2.40;;;;;;;-145.69;76.32;52186.94;5135662;27;20204;-79
2023/09/20 03:22:56;;;;;;;3.73;2.07;;;;;;;-145.69;75.77;52196.84;5135410;27;20660;-79
2023/09/20 03:25:22;;;;;;;5.87;1.97;;;;;;;-145.69;75.55;52188.91;5135351;27;20291;-80
2023/09/20 03:27:49;;;;;;;4.10;1.70;;;;;;;-145.69;74.88;52184.97;5134688;27;20197;-78
2023/09/20 03:30:20;;;;;;;2.60;1.57;;;;;;;-145.69;74.35;52210.72;5125663;27;20189;-79
2023/09/20 03:32:46;;;;;;;4.87;2.10;;;;;;;-145.69;75.80;52190.91;5113196;28;20194;-79
2023/09/20 03:35:14;;;;;;;8.90;2.20;;;;;;;-145.69;75.79;52198.81;5114595;28;20556;-79
2023/09/20 03:37:43;;;;;;;4.63;2.20;;;;;;;-145.69;75.47;52218.63;5115760;27;20197;-79
2023/09/20 03:40:17;;;;;;;4.37;2.20;;;;;;;-145.69;76.14;52232.50;5114459;27;20205;-79
2023/09/20 03:42:54;;;;;;;5.43;2.10;;;;;;;-145.69;75.97;52169.13;5114542;28;20256;-79
2023/09/20 03:45:21;;;;;;;11.37;2.07;;;;;;;-145.69;75.50;52194.88;5114637;28;20296;-79
2023/09/20 03:47:53;;;;;;;3.53;2.00;;;;;;;-145.69;76.04;52190.91;5114403;28;20193;-79
2023/09/20 03:50:21;;;;;;;4.70;1.90;;;;;;;-145.69;76.07;52198.81;5114372;28;20625;-79
2023/09/20 03:52:49;;;;;;;4.50;2.00;;;;;;;-145.69;76.11;52212.69;5114036;28;20292;-78
2023/09/20 03:55:17;;;;;;;5.00;2.17;;;;;;;-145.69;76.08;52194.88;5114136;28;20205;-78
2023/09/20 03:57:45;;;;;;;2.87;2.00;;;;;;;-145.69;75.76;52179.03;5131491;27;20280;-79
2023/09/20 04:00:17;;;;;;;3.37;1.90;;;;;;;-145.69;75.54;52250.31;5121375;27;20200;-80
2023/09/20 04:02:44;;;;;;;5.47;2.37;;;;;;;-145.69;75.49;52202.78;5134673;27;20196;-80
2023/09/20 04:05:13;;;;;;;3.13;1.90;;;;;;;-145.69;74.89;52190.91;5134603;27;20296;-79
2023/09/20 04:07:41;;;;;;;3.33;1.80;;;;;;;-145.69;75.62;52190.91;5134200;27;20560;-79
2023/09/20 04:10:09;;;;;;;6.40;1.60;;;;;;;-145.69;76.12;52198.81;5134312;27;20238;-79
2023/09/20 04:12:39;;;;;;;4.80;1.80;;;;;;;-145.69;77.09;52224.56;5134517;27;20201;-79
2023/09/20 04:15:08;;;;;;;4.30;1.90;;;;;;;-145.69;76.09;52222.59;5133029;27;20243;-79
2023/09/20 04:17:35;;;;;;;2.97;2.17;;;;;;;-145.69;76.61;52179.03;5112755;27;20226;-79
2023/09/20 04:20:03;;;;;;;9.67;2.47;;;;;;;-145.69;76.03;52188.91;5093439;28;20679;-79
2023/09/20 04:22:37;;;;;;;3.27;1.70;;;;;;;-145.69;76.49;52240.41;5094043;28;20206;-79
2023/09/20 04:25:05;;;;;;;5.50;2.27;;;;;;;-145.69;76.02;52220.59;5093558;28;20205;-79
2023/09/20 04:27:34;;;;;;;2.70;1.70;;;;;;;-145.69;76.52;52206.75;5125976;27;20197;-79
2023/09/20 04:30:07;;;;;;;3.10;1.97;;;;;;;-145.69;76.36;52218.63;5117070;27;20721;-80
2023/09/20 04:32:35;;;;;;;3.33;1.77;;;;;;;-145.69;76.66;52226.53;5112512;28;20586;-79
2023/09/20 04:35:02;;;;;;;3.60;1.80;;;;;;;-145.69;76.23;52210.72;5113610;28;20287;-80
2023/09/20 04:37:29;;;;;;;3.60;2.17;;;;;;;-145.69;76.83;52210.72;5113216;28;20190;-78
2023/09/20 04:39:56;;;;;;;6.37;2.03;;;;;;;-145.69;76.66;52234.47;5112154;28;20258;-79
2023/09/20 04:42:25;;;;;;;3.50;1.97;;;;;;;-145.69;76.05;52206.75;5113514;28;20197;-80
2023/09/20 04:47:36;;;;;;;5.27;1.90;;;;;;;-145.69;74.88;52224.56;5125712;27;20253;-79
2023/09/20 04:50:03;;;;;;;3.53;2.13;;;;;;;-145.69;75.26;52200.81;5133984;27;20224;-78
2023/09/20 04:52:30;;;;;;;3.03;2.03;;;;;;;-145.69;75.71;52210.72;5133924;27;20196;-79
2023/09/20 04:54:57;;;;;;;3.90;1.70;;;;;;;-145.69;75.70;52224.56;5133855;27;20287;-80
2023/09/20 04:57:24;;;;;;;4.13;2.00;;;;;;;-145.69;75.40;52236.44;5134073;27;20204;-79
2023/09/20 04:59:54;;;;;;;7.60;2.27;;;;;;;-145.69;76.13;52230.50;5131497;27;20224;-79
2023/09/20 05:02:30;;;;;;;10.90;2.70;;;;;;;-145.69;76.04;52222.59;5133970;27;20235;-79
2023/09/20 05:04:58;;;;;;;3.37;2.30;;;;;;;-145.69;75.73;52230.50;5133880;27;20224;-79
2023/09/20 05:07:26;;;;;;;3.73;1.90;;;;;;;-145.69;75.70;52192.88;5138231;27;20196;-79
2023/09/20 05:09:56;;;;;;;5.87;2.20;;;;;;;-145.69;75.89;52202.78;5137991;27;20397;-78
2023/09/20 05:12:22;;;;;;;3.73;2.30;;;;;;;-145.69;76.23;52198.81;5134721;27;20656;-79
2023/09/20 05:14:51;;;;;;;3.17;1.90;;;;;;;-145.69;76.51;52228.53;5117370;28;20212;-79
2023/09/20 05:17:18;;;;;;;9.00;2.50;;;;;;;-145.69;76.26;52222.59;5120295;27;20261;-79
2023/09/20 05:19:44;;;;;;;4.80;2.00;;;;;;;-145.69;75.79;52234.47;5137668;27;20554;-79
2023/09/20 05:22:13;;;;;;;4.57;2.07;;;;;;;-145.69;75.77;52220.59;5134174;27;20292;-79
2023/09/20 05:24:40;;;;;;;4.63;2.10;;;;;;;-145.69;75.75;52186.94;5138190;27;20303;-79
2023/09/20 05:27:09;;;;;;;4.87;2.30;;;;;;;-145.69;75.63;52218.63;5137875;27;20279;-79
2023/09/20 05:29:38;;;;;;;5.20;2.00;;;;;;;-145.69;75.42;52246.34;5136305;27;20303;-79
2023/09/20 05:32:10;;;;;;;2.93;2.07;;;;;;;-145.69;75.90;52246.34;5137765;27;20296;-79
2023/09/20 05:34:39;;;;;;;5.00;2.33;;;;;;;-145.69;75.03;52202.78;5137757;27;20207;-80
2023/09/20 05:37:05;;;;;;;3.63;1.80;;;;;;;-145.69;76.42;52190.91;5131218;27;20220;-79
2023/09/20 05:39:34;;;;;;;4.27;2.07;;;;;;;-145.69;76.80;52230.50;5116605;28;20202;-79
2023/09/20 05:42:05;;;;;;;3.73;2.37;;;;;;;-145.69;77.21;52228.53;5117015;27;20206;-79
2023/09/20 05:44:32;;;;;;;5.93;2.33;;;;;;;-145.69;75.98;52198.81;5128686;27;20265;-79
2023/09/20 05:47:01;;;;;;;5.70;2.40;;;;;;;-145.69;77.06;52242.38;5137121;27;20205;-78
2023/09/20 05:49:29;;;;;;;5.30;2.40;;;;;;;-145.69;77.19;52202.78;5136638;27;20221;-79
2023/09/20 05:51:56;;;;;;;8.57;2.50;;;;;;;-145.69;76.81;52222.59;5137062;27;20291;-80
2023/09/20 05:54:25;;;;;;;6.10;2.60;;;;;;;-145.69;76.62;52234.47;5137331;27;20204;-80
2023/09/20 05:56:55;;;;;;;5.80;2.13;;;;;;;-145.69;76.69;52228.53;5137149;27;20196;-80
2023/09/20 05:59:22;;;;;;;4.63;2.00;;;;;;;-145.69;76.08;52210.72;5119858;27;20211;-79
2023/09/20 06:01:50;;;;;;;5.63;1.97;;;;;;;-145.69;77.85;52218.63;5116273;28;20274;-79
2023/09/20 06:04:19;;;;;;;5.17;2.13;;;;;;;-145.69;77.32;52181.00;5116498;28;20653;-80
2023/09/20 06:06:50;;;;;;;6.60;2.33;;;;;;;-145.69;77.05;52216.66;5117502;27;20647;-79
2023/09/20 06:09:18;;;;;;;4.50;2.30;;;;;;;-145.69;77.15;52190.91;5117643;27;20221;-79
2023/09/20 06:11:45;;;;;;;5.03;2.10;;;;;;;-145.69;77.01;52206.75;5116039;27;20189;-79
2023/09/20 06:14:16;;;;;;;2.93;1.90;;;;;;;-145.69;77.55;52228.53;5120393;27;20200;-79
2023/09/20 06:16:45;;;;;;;7.07;2.30;;;;;;;-145.69;77.26;52214.66;5115983;28;20201;-80
2023/09/20 06:19:16;;;;;;;4.47;2.23;;;;;;;-145.69;77.48;52222.59;5133796;27;20329;-79
2023/09/20 06:21:47;;;;;;;8.00;2.33;;;;;;;-145.69;77.02;52198.81;5136496;27;20254;-80
2023/09/20 06:24:20;;;;;;;5.63;2.57;;;;;;;-145.69;77.45;52194.88;5099711;27;20200;-80
2023/09/20 06:26:48;;;;;;;6.07;2.10;;;;;;;-145.69;77.30;52188.91;5095629;28;20228;-79
2023/09/20 06:29:18;;;;;;;4.20;2.00;;;;;;;-145.69;77.94;52202.78;5095690;28;20646;-79
2023/09/20 06:31:45;;;;;;;3.60;2.37;;;;;;;-145.69;78.03;52190.91;5095572;28;20629;-80
2023/09/20 06:34:17;;;;;;;2.80;2.13;;;;;;;-145.69;77.81;52171.09;5095575;28;20198;-81
2023/09/20 06:36:47;;;;;;;4.07;2.45;;;;;;;-145.69;77.73;52218.63;5095464;28;20586;-79
2023/09/20 06:39:18;;;;;;;6.47;2.80;;;;;;;-145.69;77.59;52198.81;5095145;28;20296;-79
2023/09/20 06:41:45;;;;;;;5.22;1.85;;;;;;;-145.69;77.14;52198.81;5125401;27;20596;-78
2023/09/20 06:44:15;;;;;;;4.45;2.20;;;;;;;-145.69;76.58;52157.25;5136178;27;20678;-80
2023/09/20 06:46:43;;;;;;;2.78;1.92;;;;;;;-145.69;77.00;52198.81;5134925;27;20205;-79
2023/09/20 06:49:10;;;;;;;4.90;2.10;;;;;;;-145.69;76.80;52190.91;5132390;27;20227;-79
2023/09/20 06:51:36;;;;;;;8.75;1.90;;;;;;;-145.69;76.20;52188.91;5135868;27;20189;-80
2023/09/20 06:54:05;;;;;;;7.10;2.20;;;;;;;-145.69;76.22;52194.88;5135900;27;20217;-80
2023/09/20 06:56:32;;;;;;;3.90;1.80;;;;;;;-145.69;76.24;52175.06;5136016;27;20197;-80
2023/09/20 06:58:59;;;;;;;8.07;2.05;;;;;;;-145.69;75.94;52184.97;5136165;27;20213;-80
2023/09/20 07:01:29;;;;;;;6.55;1.70;;;;;;;-145.69;75.18;52159.22;5136002;27;20197;-79
2023/09/20 07:03:58;;;;;;;4.47;2.00;;;;;;;-145.69;75.88;52175.06;5120435;27;20285;-80
2023/09/20 07:06:31;;;;;;;3.88;1.70;;;;;;;-145.69;75.47;52159.22;5115080;28;20197;-79
2023/09/20 07:08:58;;;;;;;4.43;2.00;;;;;;;-145.69;76.00;52161.19;5115437;27;20208;-80
2023/09/20 07:11:26;;;;;;;5.47;2.33;;;;;;;-145.69;74.76;52194.88;5115371;27;20721;-80
2023/09/20 07:13:53;;;;;;;2.88;1.60;;;;;;;-145.69;75.51;52127.53;5115117;28;20202;-80
2023/09/20 07:16:23;;;;;;;2.72;1.77;;;;;;;-145.69;75.73;52153.28;5133151;27;20273;-79
2023/09/20 07:18:51;;;;;;;3.05;1.63;;;;;;;-145.69;76.03;52163.19;5119642;27;20225;-80
2023/09/20 07:21:25;;;;;;;3.55;1.73;;;;;;;-145.69;75.77;52161.19;5111225;28;20256;-79
2023/09/20 07:23:52;;;;;;;5.38;2.05;;;;;;;-145.69;75.23;52141.41;5094762;28;20251;-79
2023/09/20 07:26:20;;;;;;;3.03;2.00;;;;;;;-145.69;76.36;52151.28;5109399;27;20548;-79
2023/09/20 07:28:47;;;;;;;4.82;1.77;;;;;;;-145.69;74.29;52177.03;5121567;27;20205;-80
2023/09/20 07:31:19;;;;;;;2.28;1.48;;;;;;;-145.69;74.73;52141.41;5114402;28;20228;-80
2023/09/20 07:33:46;;;;;;;2.47;1.60;;;;;;;-145.69;75.33;52159.22;5114894;28;20215;-79
2023/09/20 07:36:15;;;;;;;3.97;1.50;;;;;;;-145.69;75.31;52147.34;5114822;28;20288;-79
2023/09/20 07:38:43;;;;;;;3.47;1.42;;;;;;;-145.69;75.96;52161.19;5114715;28;20276;-79
2023/09/20 07:41:13;;;;;;;3.45;1.67;;;;;;;-145.69;75.00;52161.19;5113767;27;20189;-79
2023/09/20 07:43:43;;;;;;;3.95;1.63;;;;;;;-145.69;76.32;52135.47;5134853;27;20196;-79
2023/09/20 07:46:13;;;;;;;4.50;1.50;;;;;;;-145.69;75.47;52117.63;5134957;27;20209;-79
2023/09/20 07:48:47;;;;;;;2.03;1.50;;;;;;;-145.69;75.10;52107.72;5133484;27;20201;-80
2023/09/20 07:51:14;;;;;;;2.80;1.50;;;;;;;-145.69;72.19;52125.56;5134997;27;20583;-79
2023/09/20 07:53:42;;;;;;;5.50;1.60;;;;;;;-145.69;72.67;52135.47;5134861;27;20197;-79
2023/09/20 07:56:11;;;;;;;1.98;1.30;;;;;;;-145.69;72.69;52135.47;5135015;27;20236;-79
2023/09/20 07:58:40;;;;;;;3.88;1.30;;;;;;;-145.69;71.01;52135.47;5134723;27;20201;-79
2023/09/20 08:01:17;;;;;;;2.67;1.40;;;;;;;-145.69;69.26;52105.75;5133155;27;20593;-79
2023/09/20 08:03:50;;;;;;;5.25;1.48;;;;;;;-145.69;66.44;52107.72;5134902;27;20196;-80
2023/09/20 08:06:17;;;;;;;3.50;1.10;;;;;;;-145.69;65.31;52089.91;5134718;27;20197;-80
2023/09/20 08:08:45;;;;;;;3.83;1.35;;;;;;;-145.69;63.68;52125.56;5134819;27;20201;-80
2023/09/20 08:11:16;;;;;;;4.43;1.27;;;;;;;-145.69;63.82;52111.69;5134361;27;20228;-80
2023/09/20 08:13:42;;;;;;;3.90;1.15;;;;;;;-145.69;65.52;52123.56;5134108;27;20972;-80
2023/09/20 08:16:12;;;;;;;3.45;1.27;;;;;;;-145.69;62.03;52111.69;5134630;27;20212;-80
2023/09/20 08:21:29;;;;;;;4.80;1.27;;;;;;;-145.69;58.28;52101.78;5114101;28;20323;-81
2023/09/20 08:59:53;;;;;;;2.55;1.02;;;;;;;-145.69;56.38;52056.25;5132491;27;20567;-79
2023/09/20 09:02:21;;;;;;;4.10;1.55;;;;;;;-145.69;55.64;52074.06;5133894;27;20197;-81
2023/09/20 09:04:52;;;;;;;4.53;1.17;;;;;;;-145.69;53.93;52052.28;5114485;27;20284;-81
2023/09/20 09:07:19;;;;;;;2.28;0.93;;;;;;;-145.69;52.69;52046.34;5113041;28;20193;-80
2023/09/20 09:09:49;;;;;;;2.08;1.23;;;;;;;-145.69;53.70;52056.25;5113694;28;20220;-80
2023/09/20 09:12:20;;;;;;;2.03;0.80;;;;;;;-145.69;54.34;52064.16;5112817;28;20193;-79
2023/09/20 09:14:48;;;;;;;6.28;1.20;;;;;;;-145.69;53.76;52056.25;5113238;28;20208;-83
2023/09/20 09:17:17;;;;;;;2.05;1.33;;;;;;;-145.69;52.55;52036.44;5113351;28;20224;-79
2023/09/20 09:19:53;;;;;;;3.63;0.95;;;;;;;-145.69;53.25;52068.13;5120967;28;20619;-80
2023/09/20 09:22:23;;;;;;;2.55;1.20;;;;;;;-145.69;51.77;52042.38;5118219;28;20201;-80
2023/09/20 09:24:50;;;;;;;1.80;1.23;;;;;;;-145.69;51.55;52078.03;5124524;28;20197;-80
2023/09/20 09:27:18;;;;;;;5.60;1.00;;;;;;;-145.69;50.07;52020.59;5105892;28;20202;-80
2023/09/20 09:29:45;;;;;;;2.03;0.95;;;;;;;-145.69;51.37;52048.31;5116944;28;20228;-80
2023/09/20 09:32:13;;;;;;;2.45;1.08;;;;;;;-145.69;52.23;52028.53;5121934;27;20204;-81
2023/09/20 09:34:41;;;;;;;3.42;1.33;;;;;;;-145.69;51.68;52044.38;5113164;28;20193;-79
2023/09/20 09:37:08;;;;;;;3.78;1.25;;;;;;;-145.69;52.08;52038.44;5113081;28;20200;-81
2023/09/20 09:39:36;;;;;;;3.95;1.02;;;;;;;-145.69;52.53;52056.25;5113223;28;20221;-80
2023/09/20 09:42:03;;;;;;;1.88;0.98;;;;;;;-145.69;51.30;52034.47;5105595;28;20668;-80
2023/09/20 09:44:49;;;;;;;3.13;1.00;;;;;;;-145.69;49.58;52036.44;5114003;28;20208;-79
2023/09/20 09:47:18;;;;;;;1.90;1.02;;;;;;;-145.69;50.49;52020.59;5120735;27;20217;-80
2023/09/20 09:49:48;;;;;;;1.52;1.00;;;;;;;-145.69;49.51;52012.69;5125478;28;20693;-79
2023/09/20 09:52:16;;;;;;;2.17;1.00;;;;;;;-145.69;49.76;52012.69;5118229;27;20193;-80
2023/09/20 09:54:44;;;;;;;4.03;1.05;;;;;;;-145.69;49.36;52014.66;5128300;27;20196;-79
2023/09/20 09:57:11;;;;;;;4.78;1.10;;;;;;;-145.69;50.95;52028.53;5123981;27;20201;-80
2023/09/20 09:59:40;;;;;;;2.13;0.98;;;;;;;-145.69;49.44;52060.22;5116241;28;20221;-80
2023/09/20 10:02:16;;;;;;;3.40;1.30;;;;;;;-145.69;49.28;52020.59;5116861;28;20217;-81
2023/09/20 10:04:47;;;;;;;2.53;0.90;;;;;;;-145.69;48.71;52028.53;5107710;27;20224;-81
2023/09/20 10:07:18;;;;;;;2.75;1.00;;;;;;;-145.69;50.39;52016.66;5136557;27;20193;-79
2023/09/20 10:09:49;;;;;;;4.20;0.93;;;;;;;-145.69;49.57;52044.38;5136314;27;20189;-80
2023/09/20 10:12:16;;;;;;;3.42;1.02;;;;;;;-145.69;51.27;52022.59;5136930;27;20197;-80
2023/09/20 10:14:48;;;;;;;2.38;1.00;;;;;;;-145.69;50.75;51990.91;5133226;27;20189;-80
2023/09/20 10:17:20;;;;;;;1.75;0.90;;;;;;;-145.69;49.87;52008.72;5095832;28;20657;-79
2023/09/20 10:19:49;;;;;;;1.88;1.10;;;;;;;-145.69;49.13;52044.38;5105162;27;20233;-80
2023/09/20 10:22:19;;;;;;;2.65;1.08;;;;;;;-145.69;48.64;51996.84;5123197;27;20190;-80
2023/09/20 10:24:53;;;;;;;5.15;0.90;;;;;;;-145.69;48.69;52036.44;5128058;27;20197;-79
2023/09/20 10:27:26;;;;;;;1.65;1.00;;;;;;;-145.69;49.05;52000.81;5132784;27;20616;-79
2023/09/20 10:30:09;;;;;;;2.08;1.05;;;;;;;-145.69;48.23;52002.78;5100809;27;20193;-79
2023/09/20 10:32:53;;;;;;;1.10;0.90;;;;;;;-145.69;47.30;52000.81;5116742;28;20585;-80
2023/09/20 10:35:22;;;;;;;2.83;1.17;;;;;;;-145.69;48.27;51990.91;5131797;27;20204;-80
2023/09/20 10:38:04;;;;;;;2.40;0.88;;;;;;;-145.69;46.79;51963.19;5137724;27;20215;-80
2023/09/20 10:41:05;;;;;;;3.55;1.00;;;;;;;-145.69;46.70;51990.91;5136983;27;20201;-80
2023/09/20 10:43:47;;;;;;;2.45;0.93;;;;;;;-145.69;46.07;51973.06;5093305;28;20200;-80
2023/09/20 10:46:17;;;;;;;2.72;1.05;;;;;;;-145.69;44.96;52012.69;5130419;27;20853;-82
2023/09/20 10:48:49;;;;;;;7.07;1.10;;;;;;;-145.69;45.11;51953.28;5133119;27;20245;-81
2023/09/20 10:51:42;;;;;;;3.65;0.82;;;;;;;-145.69;44.78;52004.75;5120921;27;20622;-82
2023/09/20 10:54:18;;;;;;;1.70;1.05;;;;;;;-145.69;43.65;51984.97;5125092;27;20205;-81
2023/09/20 10:56:58;;;;;;;2.58;0.98;;;;;;;-145.69;42.57;51981.00;5131793;27;20196;-81
2023/09/20 10:59:28;;;;;;;2.00;0.90;;;;;;;-145.69;43.80;51992.88;5126219;27;20222;-81
2023/09/20 11:01:58;;;;;;;1.42;0.90;;;;;;;-145.69;44.74;51971.09;5123312;27;20208;-81
2023/09/20 11:04:25;;;;;;;3.13;1.05;;;;;;;-145.69;44.14;51965.16;5129348;27;20246;-82
2023/09/20 11:06:53;;;;;;;2.33;1.00;;;;;;;-145.69;43.43;51990.91;5135465;27;20655;-80
2023/09/20 11:09:20;;;;;;;1.15;0.80;;;;;;;-145.69;44.31;51979.03;5135660;27;20205;-82
2023/09/20 11:11:48;;;;;;;1.95;1.00;;;;;;;-145.69;46.21;51990.91;5124429;27;20455;-80
2023/09/20 11:14:18;;;;;;;1.65;1.00;;;;;;;-145.69;45.76;51967.13;5094966;28;20210;-82
2023/09/20 11:16:47;;;;;;;2.85;1.02;;;;;;;-145.69;46.18;51981.00;5112349;27;20571;-81
2023/09/20 11:19:21;;;;;;;3.25;1.10;;;;;;;-145.69;45.29;51982.97;5118390;27;20786;-81
2023/09/20 11:21:48;;;;;;;1.90;1.00;;;;;;;-145.69;44.78;51979.03;5135559;27;20197;-81
2023/09/20 11:24:18;;;;;;;1.17;0.90;;;;;;;-145.69;43.69;51961.19;5128228;27;20220;-82
2023/09/20 11:26:47;;;;;;;2.45;0.98;;;;;;;-145.69;45.00;51951.28;5124645;27;20197;-81
2023/09/20 11:29:16;;;;;;;2.20;1.10;;;;;;;-145.69;44.01;52008.72;5130223;27;20192;-82
2023/09/20 11:31:46;;;;;;;2.15;0.90;;;;;;;-145.69;46.28;51984.97;5124475;27;20251;-81
2023/09/20 11:34:13;;;;;;;4.07;1.00;;;;;;;-145.69;44.32;51986.94;5114983;27;20201;-82
2023/09/20 11:36:42;;;;;;;2.95;0.88;;;;;;;-145.69;44.14;51967.13;5126654;27;20201;-81
2023/09/20 11:39:09;;;;;;;2.67;1.15;;;;;;;-145.69;42.90;51981.00;5131116;27;20283;-82
2023/09/20 11:41:38;;;;;;;3.65;1.00;;;;;;;-145.69;43.51;52006.75;5135076;27;20776;-81
2023/09/20 11:44:07;;;;;;;4.38;1.00;;;;;;;-145.69;44.50;51982.97;5135214;27;20197;-82
2023/09/20 11:46:34;;;;;;;1.45;0.90;;;;;;;-145.69;42.73;51984.97;5118258;27;20547;-82
2023/09/20 11:49:02;;;;;;;2.47;0.93;;;;;;;-145.69;43.64;51949.31;5114400;27;20202;-81
2023/09/20 11:51:30;;;;;;;3.15;1.00;;;;;;;-145.69;44.07;51941.41;5132357;27;20220;-82
2023/09/20 11:54:05;;;;;;;2.03;1.23;;;;;;;-145.69;45.08;51961.19;5118113;28;20544;-81
2023/09/20 11:56:35;;;;;;;1.77;0.63;;;;;;;-145.69;44.90;51973.06;5121603;27;20713;-82
2023/09/20 11:59:03;;;;;;;0.80;0.70;;;;;;;-145.69;44.04;51933.47;5124989;27;20668;-83
2023/09/20 12:01:33;;;;;;;1.38;0.65;;;;;;;-145.69;42.21;51984.97;5116527;28;20243;-82
2023/09/20 12:04:03;;;;;;;3.17;1.02;;;;;;;-145.69;44.52;51939.41;5116389;27;20197;-81
2023/09/20 12:06:31;;;;;;;1.60;0.80;;;;;;;-145.69;42.77;51951.28;5117365;28;20201;-81
2023/09/20 12:09:00;;;;;;;1.38;0.95;;;;;;;-145.69;43.40;51961.19;5116952;28;20201;-82